• Join FlightAware (Why Join?)
  • Login
  • US Flag 
11:19AM EDT


 

Airport Tracker/Info


-or-


 

Live Flight TrackerFlight Track Log ✈ N1136G ✈ 28-Aug-2013 ✈ KOTM - 1H8

Flight Track Log - Related Links

Times and Time Zones

All times are in EDT time to prevent confusion due to time zone crossing. See the N1136G flight status page for this flight to view local times or setup timezone preferences in your user account.

Time Position Orientation Groundspeed Altitude Reporting Facility
EDT Latitude Longitude Course Direction KTS MPH feet Rate Location/Type
11:02AM 41.0236 -92.3017 127° Southeast 120 138 3,700  Level Chicago Center
11:03AM 41.0042 -92.2564 120° Southeast 118 136 4,400 480 Climbing Chicago Center
11:04AM 40.9908 -92.2217 117° Southeast 115 132 4,800 240 Climbing Chicago Center
11:05AM 40.9739 -92.1819 119° Southeast 117 135 5,000 120 Climbing Chicago Center
11:06AM 40.9572 -92.1367 116° Southeast 124 143 5,100  Climbing Chicago Center
11:08AM 40.9297 -92.0703 119° Southeast 138 159 5,000 -60 Descending Chicago Center
11:09AM 40.9056 -92.0125 119° Southeast 145 167 5,000  Level Chicago Center
11:10AM 40.8853 -91.9658 120° Southeast 147 169 5,000 -60 Level Chicago Center
11:11AM 40.8650 -91.9203 120° Southeast 147 169 4,900  Descending Chicago Center
11:12AM 40.8461 -91.8731 118° Southeast 146 168 5,000  Climbing Chicago Center
11:13AM 40.8278 -91.8264 117° Southeast 145 167 5,000  Level Chicago Center
11:14AM 40.8061 -91.7689 116° Southeast 146 168 5,000  Level Chicago Center
11:15AM 40.7872 -91.7217 118° Southeast 147 169 5,000  Level Chicago Center
11:16AM 40.7703 -91.6731 115° Southeast 147 169 5,000  Level Chicago Center
11:17AM 40.7542 -91.6236 113° Southeast 147 169 5,000  Level Chicago Center
11:18AM 40.7378 -91.5744 114° Southeast 147 169 5,000  Level Chicago Center
11:19AM 40.7189 -91.5158 113° Southeast 147 169 5,000  Level Chicago Center
11:20AM 40.7011 -91.4667 115° Southeast 148 170 5,000 -60 Level Chicago Center
11:21AM 40.6844 -91.4189 115° Southeast 146 168 4,900  Descending Chicago Center
11:22AM 40.6664 -91.3706 116° Southeast 148 170 5,000  Climbing Chicago Center
11:23AM 40.6478 -91.3233 117° Southeast 146 168 5,000 -60 Level Chicago Center
11:24AM 40.6267 -91.2708 118° Southeast 147 169 4,900  Descending Chicago Center
11:25AM 40.6069 -91.2239 119° Southeast 147 169 5,000 60 Climbing Chicago Center
11:26AM 40.5883 -91.1772 118° Southeast 145 167 5,100  Climbing Chicago Center
11:27AM 40.5700 -91.1311 118° Southeast 144 166 5,100  Level Chicago Center
11:28AM 40.5472 -91.0733 117° Southeast 147 169 5,100 -60 Level Chicago Center
11:29AM 40.5297 -91.0261 116° Southeast 145 167 5,000 -120 Descending Chicago Center
11:30AM 40.5094 -90.9769 118° Southeast 150 173 4,900  Descending Chicago Center
11:31AM 40.4897 -90.9289 118° Southeast 150 173 5,000  Climbing Chicago Center
11:32AM 40.4667 -90.8811 122° Southeast 152 175 5,000  Level Chicago Center
11:33AM 40.4472 -90.8336 118° Southeast 151 174 5,100  Climbing Chicago Center
11:34AM 40.4253 -90.7792 118° Southeast 144 166 5,100  Level Chicago Center
11:35AM 40.4044 -90.7308 119° Southeast 149 171 5,100 -60 Level Chicago Center
11:36AM 40.3875 -90.6808 114° Southeast 150 173 5,000 -120 Descending Chicago Center
11:37AM 40.3678 -90.6300 117° Southeast 154 177 4,900  Descending Chicago Center
11:39AM 40.3506 -90.5822 115° Southeast 149 171 5,000  Climbing Chicago Center
11:40AM 40.3303 -90.5233 114° Southeast 148 170 4,900  Descending Kansas City Center
11:41AM 40.3111 -90.4739 117° Southeast 149 171 5,000  Climbing Kansas City Center
11:42AM 40.2933 -90.4258 116° Southeast 149 171 5,000  Level Kansas City Center
11:43AM 40.2742 -90.3761 117° Southeast 150 173 5,100  Climbing Kansas City Center
11:44AM 40.2550 -90.3289 118° Southeast 149 171 5,100 -60 Level Chicago Center
11:45AM 40.2372 -90.2792 115° Southeast 150 173 5,000  Descending Chicago Center
11:46AM 40.2181 -90.2314 118° Southeast 150 173 5,100  Climbing Chicago Center
11:47AM 40.1942 -90.1731 118° Southeast 151 174 5,000 -60 Descending Chicago Center
11:48AM 40.1742 -90.1228 117° Southeast 153 176 5,000  Level Chicago Center
11:49AM 40.1539 -90.0739 118° Southeast 154 177 5,000  Level Chicago Center
11:50AM 40.1339 -90.0242 118° Southeast 154 177 5,000  Level Chicago Center
11:51AM 40.1106 -89.9650 117° Southeast 154 177 5,000 -60 Level Kansas City Center
11:52AM 40.0906 -89.9164 118° Southeast 153 176 4,900  Descending Kansas City Center
11:53AM 40.0711 -89.8675 117° Southeast 152 175 5,000  Climbing Kansas City Center
11:54AM 40.0528 -89.8175 116° Southeast 153 176 5,000  Level Kansas City Center
11:55AM 40.0367 -89.7656 112° Southeast 153 176 5,000  Level Kansas City Center
11:56AM 40.0156 -89.7036 114° Southeast 156 180 5,000  Level Kansas City Center
11:57AM 39.9997 -89.6542 113° Southeast 151 174 5,100  Climbing Kansas City Center
11:58AM 39.9814 -89.6033 115° Southeast 154 177 5,000 -60 Descending Kansas City Center
11:59AM 39.9617 -89.5539 117° Southeast 153 176 5,000 -60 Level Kansas City Center
12:00PM 39.9422 -89.5033 117° Southeast 156 180 4,900  Descending Kansas City Center
12:01PM 39.9222 -89.4539 118° Southeast 155 178 5,000  Climbing Kansas City Center
12:03PM 39.8911 -89.3747 117° Southeast 153 176 5,000  Level Kansas City Center
12:04PM 39.8717 -89.3244 117° Southeast 155 178 5,000  Level Kansas City Center
12:05PM 39.8525 -89.2742 116° Southeast 155 178 5,000  Level Kansas City Center
12:06PM 39.8314 -89.2253 119° Southeast 156 180 5,000 -60 Level Kansas City Center
12:07PM 39.8097 -89.1772 120° Southeast 155 178 4,900  Descending Kansas City Center
12:08PM 39.7875 -89.1283 121° Southeast 156 180 5,000  Climbing Kansas City Center
12:09PM 39.7611 -89.0708 121° Southeast 154 177 5,000  Level Kansas City Center
12:10PM 39.7392 -89.0231 121° Southeast 155 178 5,000  Level Kansas City Center
12:11PM 39.7169 -88.9744 121° Southeast 155 178 5,000  Level Kansas City Center
12:12PM 39.6956 -88.9256 120° Southeast 157 181 5,000  Level Kansas City Center
12:13PM 39.6750 -88.8764 118° Southeast 155 178 5,000 -60 Level Kansas City Center
12:14PM 39.6531 -88.8278 120° Southeast 155 178 4,900  Descending Kansas City Center
12:15PM 39.6300 -88.7681 117° Southeast 154 177 5,000  Climbing Kansas City Center
12:16PM 39.6092 -88.7189 119° Southeast 155 178 5,000  Level Kansas City Center
12:17PM 39.5897 -88.6703 117° Southeast 154 177 5,000  Level Kansas City Center
12:18PM 39.5694 -88.6208 118° Southeast 155 178 5,000  Level Kansas City Center
12:19PM 39.5486 -88.5708 118° Southeast 155 178 5,000  Level Kansas City Center
12:20PM 39.5289 -88.5214 117° Southeast 156 180 5,000  Level Kansas City Center
12:21PM 39.5025 -88.4614 120° Southeast 159 183 5,100  Climbing Kansas City Center
12:22PM 39.4806 -88.4144 121° Southeast 156 180 5,100  Level Kansas City Center
12:23PM 39.4606 -88.3642 117° Southeast 155 178 5,100 -120 Level Kansas City Center
12:25PM 39.4200 -88.2697 119° Southeast 158 182 4,900 -120 Descending Chicago Center